Terminal Aerodrome Forecast
Issued by NWS

Home | Current Version | Previous Version | Text Only | Print | Product List | Glossary On
Versions: 1 2 3 4 5 6 7 8 9 10 11 12
000
FTUS43 KFGF 270531
TAFBJI
TAF
KBJI 270531Z 2706/2806 20004KT P6SM SCT150
     FM271400 11004KT P6SM BKN100
     FM280300 04005KT P6SM OVC030
     FM280500 04006KT P6SM BKN015=

USA.gov is the U.S. government's official web portal to all federal, state and local government web resources and services.